createdAt,value
2023-08-14T00:00:00.000Z,9.87
2023-08-14T00:15:00.000Z,9.32
2023-08-14T00:30:00.000Z,9.58
2023-08-14T00:45:00.000Z,8.66
2023-08-14T01:00:00.000Z,4.2
2023-08-14T01:15:00.000Z,4.41
2023-08-14T01:30:00.000Z,4.87
2023-08-14T01:45:00.000Z,5.67
2023-08-14T02:00:00.000Z,5.07
2023-08-14T02:15:00.000Z,5.18
2023-08-14T02:30:00.000Z,6.61
2023-08-14T02:45:00.000Z,5.48
2023-08-14T03:00:00.000Z,4.87
2023-08-14T03:15:00.000Z,6.67
2023-08-14T03:30:00.000Z,6.54
2023-08-14T03:45:00.000Z,6.96
2023-08-14T04:00:00.000Z,7.13
2023-08-14T04:15:00.000Z,6.24
2023-08-14T04:30:00.000Z,6.32
2023-08-14T04:45:00.000Z,6.56
2023-08-14T05:00:00.000Z,4.84
2023-08-14T05:15:00.000Z,4.38
2023-08-14T05:30:00.000Z,4.46
2023-08-14T05:45:00.000Z,4.25
2023-08-14T06:00:00.000Z,4.07
2023-08-14T06:15:00.000Z,4.18
2023-08-14T06:30:00.000Z,4.01
2023-08-14T06:45:00.000Z,4.11
2023-08-14T07:00:00.000Z,5.11
2023-08-14T07:15:00.000Z,5.45
2023-08-14T07:30:00.000Z,6.4
2023-08-14T07:45:00.000Z,6.42
2023-08-14T08:00:00.000Z,5.28
2023-08-14T08:15:00.000Z,5.91
2023-08-14T08:30:00.000Z,5.75
2023-08-14T08:45:00.000Z,4.55
2023-08-14T09:00:00.000Z,4.85
2023-08-14T09:15:00.000Z,5.18
2023-08-14T09:30:00.000Z,5.74
2023-08-14T09:45:00.000Z,5.74
2023-08-14T10:00:00.000Z,5.78
2023-08-14T10:15:00.000Z,6.88
2023-08-14T10:30:00.000Z,6.75
2023-08-14T10:45:00.000Z,7.24
2023-08-14T11:00:00.000Z,7.15
2023-08-14T11:15:00.000Z,6.99
2023-08-14T11:30:00.000Z,7.15
2023-08-14T11:45:00.000Z,7.26
2023-08-14T12:00:00.000Z,7.15
2023-08-14T12:15:00.000Z,7.56
2023-08-14T12:30:00.000Z,7.41
2023-08-14T12:45:00.000Z,7.51
2023-08-14T13:00:00.000Z,7.18
2023-08-14T13:15:00.000Z,7.29
2023-08-14T13:30:00.000Z,6.54
2023-08-14T13:45:00.000Z,5.52
2023-08-14T14:00:00.000Z,5.95
2023-08-14T14:15:00.000Z,7.16
2023-08-14T14:30:00.000Z,7.28
2023-08-14T14:45:00.000Z,7.25
2023-08-14T15:00:00.000Z,7.47
2023-08-14T15:15:00.000Z,7.36
2023-08-14T15:30:00.000Z,7.73
2023-08-14T15:45:00.000Z,7.31
2023-08-14T16:00:00.000Z,7.95
2023-08-14T16:15:00.000Z,7.73
2023-08-14T16:30:00.000Z,7.4
2023-08-14T16:45:00.000Z,9.08
2023-08-14T17:00:00.000Z,9.6
2023-08-14T17:15:00.000Z,9.88
2023-08-14T17:30:00.000Z,10.61
2023-08-14T17:45:00.000Z,10.49
2023-08-14T18:00:00.000Z,13.48
2023-08-14T18:15:00.000Z,11.72
2023-08-14T18:30:00.000Z,19.65
2023-08-14T18:45:00.000Z,13.38
2023-08-14T19:00:00.000Z,15.78
2023-08-14T19:15:00.000Z,16.89
2023-08-14T19:30:00.000Z,14.09
2023-08-14T19:45:00.000Z,14.19
2023-08-14T20:00:00.000Z,14.61
2023-08-14T20:15:00.000Z,14.16
2023-08-14T20:30:00.000Z,13.66
2023-08-14T20:45:00.000Z,13.67
2023-08-14T21:00:00.000Z,14.13
2023-08-14T21:15:00.000Z,14.19
2023-08-14T21:30:00.000Z,14.84
2023-08-14T21:45:00.000Z,14.48
2023-08-14T22:00:00.000Z,13.88
2023-08-14T22:15:00.000Z,13.31
2023-08-14T22:30:00.000Z,13.67
2023-08-14T22:45:00.000Z,13.89
2023-08-14T23:00:00.000Z,13.73
2023-08-14T23:15:00.000Z,12.35
2023-08-14T23:30:00.000Z,11.31
2023-08-14T23:45:00.000Z,10.87
